Time;durP1;ratioP1;P1;durP2;ratioP2;P2;SDS_P1;SDS_P2;PMS_P1;PMS_P2;Temp;Humidity;BMP_temperature;BMP_pressure;BME280_temperature;BME280_humidity;BME280_pressure;Samples;Min_cycle;Max_cycle;Signal;HPM_P1;HPM_P2
2023/01/08 00:01:23;;;;;;;3.15;2.40;;;;;;;10.94;100.00;100220.63;5090655;28;20041;-44
2023/01/08 00:03:50;;;;;;;4.32;2.33;;;;;;;10.90;100.00;100223.13;5091605;28;20054;-44
2023/01/08 00:06:22;;;;;;;3.85;2.25;;;;;;;10.84;100.00;100218.78;5090712;28;20039;-45
2023/01/08 00:08:50;;;;;;;3.75;2.22;;;;;;;10.86;100.00;100228.31;5092457;28;20064;-45
2023/01/08 00:11:17;;;;;;;3.75;2.28;;;;;;;10.85;100.00;100225.88;5091437;28;20040;-44
2023/01/08 00:13:45;;;;;;;3.65;2.28;;;;;;;10.81;100.00;100222.09;5091282;28;20040;-44
2023/01/08 00:16:15;;;;;;;3.65;2.28;;;;;;;10.80;100.00;100232.19;5092335;28;20048;-44
2023/01/08 00:18:44;;;;;;;8.52;2.50;;;;;;;10.80;100.00;100236.78;5074287;28;20131;-44
2023/01/08 00:21:12;;;;;;;4.65;2.50;;;;;;;10.78;100.00;100230.84;5091476;28;20036;-44
2023/01/08 00:23:40;;;;;;;4.13;2.47;;;;;;;10.78;100.00;100228.13;5090860;28;20101;-44
2023/01/08 00:26:09;;;;;;;4.43;2.25;;;;;;;10.77;100.00;100223.75;5108884;28;20044;-42
2023/01/08 00:28:37;;;;;;;4.32;2.40;;;;;;;10.75;100.00;100215.88;5094202;28;20063;-43
2023/01/08 00:31:09;;;;;;;3.50;2.47;;;;;;;10.77;100.00;100219.09;5092126;28;20048;-44
2023/01/08 00:33:37;;;;;;;2.70;2.22;;;;;;;10.79;100.00;100211.47;5091427;28;20044;-43
2023/01/08 00:36:13;;;;;;;7.65;2.40;;;;;;;10.78;100.00;100209.03;5096719;28;20036;-44
2023/01/08 00:38:42;;;;;;;6.38;2.60;;;;;;;10.80;100.00;100207.66;5109048;28;20050;-43
2023/01/08 00:41:10;;;;;;;3.88;2.30;;;;;;;10.85;100.00;100195.91;5094593;28;20075;-44
2023/01/08 00:43:37;;;;;;;6.65;2.60;;;;;;;10.79;100.00;100194.31;5092795;28;20417;-42
2023/01/08 00:46:06;;;;;;;6.15;2.50;;;;;;;10.79;100.00;100191.56;5078057;28;20053;-43
2023/01/08 00:48:37;;;;;;;4.28;2.47;;;;;;;10.75;100.00;100187.78;5095802;28;20123;-43
2023/01/08 00:51:07;;;;;;;3.45;2.30;;;;;;;10.74;100.00;100186.19;5094621;28;20050;-45
2023/01/08 00:53:36;;;;;;;2.83;2.08;;;;;;;10.75;100.00;100185.06;5093436;28;20056;-44
2023/01/08 00:56:07;;;;;;;4.38;2.40;;;;;;;10.78;100.00;100189.97;5081494;28;20043;-45
2023/01/08 00:58:34;;;;;;;5.43;2.70;;;;;;;10.73;100.00;100179.13;5095713;28;20460;-45
2023/01/08 01:01:07;;;;;;;3.53;2.03;;;;;;;10.81;100.00;100175.75;5095177;28;20036;-45
2023/01/08 01:03:36;;;;;;;5.15;2.53;;;;;;;10.73;100.00;100179.91;5055623;28;20036;-42
2023/01/08 01:06:05;;;;;;;3.90;2.35;;;;;;;10.76;100.00;100173.09;5093856;28;20036;-44
2023/01/08 01:08:33;;;;;;;4.10;2.30;;;;;;;10.77;100.00;100177.44;5095420;28;20056;-45
2023/01/08 01:11:25;;;;;;;5.03;2.50;;;;;;;10.72;100.00;100170.09;5093961;28;20040;-44
2023/01/08 01:13:54;;;;;;;4.78;2.22;;;;;;;10.76;100.00;100162.19;5094512;28;20036;-46
2023/01/08 01:16:22;;;;;;;5.55;2.45;;;;;;;10.78;100.00;100162.72;5094878;28;20036;-44
2023/01/08 01:18:51;;;;;;;7.55;2.80;;;;;;;10.82;100.00;100155.56;5094042;28;20055;-44
2023/01/08 01:21:21;;;;;;;6.07;2.13;;;;;;;10.82;100.00;100164.59;5094176;28;20118;-42
2023/01/08 01:23:52;;;;;;;4.38;2.20;;;;;;;10.78;100.00;100165.44;5095094;28;20050;-45
2023/01/08 01:26:20;;;;;;;6.10;2.58;;;;;;;10.79;100.00;100156.16;5095096;28;20040;-44
2023/01/08 01:28:49;;;;;;;5.50;2.50;;;;;;;10.76;100.00;100156.72;5095017;28;20047;-44
2023/01/08 01:31:18;;;;;;;5.25;2.67;;;;;;;10.72;100.00;100161.13;5093814;28;20048;-43
2023/01/08 01:33:46;;;;;;;3.90;2.22;;;;;;;10.79;100.00;100146.06;5093324;28;20060;-44
2023/01/08 01:36:15;;;;;;;5.15;2.72;;;;;;;10.79;100.00;100146.06;5105409;28;20044;-44
2023/01/08 01:38:47;;;;;;;6.90;2.30;;;;;;;10.75;100.00;100144.19;5095674;28;20031;-43
2023/01/08 01:41:31;;;;;;;4.65;2.05;;;;;;;10.80;100.00;100147.72;5094815;28;20376;-45
2023/01/08 01:44:20;;;;;;;5.10;2.30;;;;;;;10.74;100.00;100148.03;5093410;28;20044;-44
2023/01/08 01:46:49;;;;;;;3.78;2.15;;;;;;;10.73;100.00;100157.31;5091563;28;20039;-44
2023/01/08 01:49:22;;;;;;;4.40;2.35;;;;;;;10.76;100.00;100156.72;5096240;28;20093;-44
2023/01/08 01:51:53;;;;;;;6.93;2.40;;;;;;;10.74;100.00;100157.00;5093728;28;20052;-43
2023/01/08 01:54:21;;;;;;;4.65;2.20;;;;;;;10.77;100.00;100163.78;5093347;28;20137;-44
2023/01/08 01:56:49;;;;;;;4.90;2.63;;;;;;;10.73;100.00;100157.31;5093872;28;20039;-44
2023/01/08 01:59:16;;;;;;;7.40;2.78;;;;;;;10.68;100.00;100160.06;5097262;28;20075;-46
2023/01/08 02:01:44;;;;;;;5.93;2.50;;;;;;;10.70;100.00;100169.56;5095602;28;20054;-44
2023/01/08 02:04:32;;;;;;;5.53;2.33;;;;;;;10.77;100.00;100163.78;5096978;28;20051;-45
2023/01/08 02:07:35;;;;;;;4.70;2.33;;;;;;;10.77;100.00;100172.78;5080952;28;20052;-43
2023/01/08 02:10:15;;;;;;;2.25;1.83;;;;;;;10.83;100.00;100162.66;5093747;28;20048;-44
2023/01/08 02:13:04;;;;;;;4.97;2.40;;;;;;;10.85;100.00;100160.47;5092412;28;20107;-44
2023/01/08 02:16:07;;;;;;;3.30;2.15;;;;;;;10.98;100.00;100154.34;5093622;28;20036;-45
2023/01/08 02:18:54;;;;;;;6.80;2.40;;;;;;;10.96;100.00;100159.25;5053620;28;20520;-44
2023/01/08 02:21:30;;;;;;;4.32;1.75;;;;;;;10.87;100.00;100160.97;5078502;28;20043;-44
2023/01/08 02:23:59;;;;;;;3.80;1.85;;;;;;;10.84;100.00;100161.56;5088242;28;20040;-45
2023/01/08 02:26:34;;;;;;;4.28;2.00;;;;;;;10.71;100.00;100159.50;5092210;28;20478;-43
2023/01/08 02:29:15;;;;;;;5.38;1.80;;;;;;;10.68;100.00;100154.59;5092713;28;20040;-43
2023/01/08 02:31:43;;;;;;;6.03;2.13;;;;;;;10.59;100.00;100138.88;5092179;28;20051;-43
2023/01/08 02:34:11;;;;;;;3.67;1.70;;;;;;;10.54;100.00;100135.41;5091443;28;20044;-44
2023/01/08 02:36:50;;;;;;;3.97;1.83;;;;;;;10.52;100.00;100134.88;5092842;28;20450;-43
2023/01/08 02:39:39;;;;;;;4.45;2.17;;;;;;;10.46;100.00;100134.06;5091707;28;20546;-46
2023/01/08 02:42:40;;;;;;;5.20;1.92;;;;;;;10.45;100.00;100135.19;5096202;28;20036;-45
2023/01/08 02:45:16;;;;;;;3.67;1.48;;;;;;;10.38;100.00;100129.25;5099600;28;20036;-44
2023/01/08 02:47:45;;;;;;;5.28;2.17;;;;;;;10.35;100.00;100129.81;5100020;28;20054;-43
2023/01/08 02:50:31;;;;;;;7.65;2.60;;;;;;;10.33;100.00;100138.25;5093698;28;20051;-44
2023/01/08 02:53:24;;;;;;;4.63;1.50;;;;;;;10.35;100.00;100138.00;5092115;28;20044;-45
2023/01/08 02:55:54;;;;;;;3.85;1.70;;;;;;;10.27;100.00;100124.94;5084612;28;20410;-43
2023/01/08 02:58:23;;;;;;;4.38;1.55;;;;;;;10.23;100.00;100138.31;5091217;28;20040;-43
2023/01/08 03:00:51;;;;;;;3.63;2.10;;;;;;;10.28;100.00;100129.28;5092372;28;20036;-44
2023/01/08 03:03:21;;;;;;;5.28;1.73;;;;;;;10.28;100.00;100134.75;5095194;28;20376;-43
2023/01/08 03:05:59;;;;;;;6.28;2.10;;;;;;;10.24;100.00;100148.91;5097080;28;20044;-43
2023/01/08 03:08:27;;;;;;;3.40;1.83;;;;;;;10.19;100.00;100137.22;5099361;28;20501;-44
2023/01/08 03:11:15;;;;;;;5.95;1.88;;;;;;;10.18;100.00;100136.44;5097806;28;20494;-43
2023/01/08 03:14:03;;;;;;;3.03;1.50;;;;;;;10.20;100.00;100136.97;5095374;28;20043;-45
2023/01/08 03:16:39;;;;;;;3.78;1.63;;;;;;;10.19;100.00;100137.22;5092424;28;20044;-45
2023/01/08 03:19:34;;;;;;;4.75;1.73;;;;;;;10.15;100.00;100141.59;5093629;28;20498;-45
2023/01/08 03:22:05;;;;;;;3.75;1.48;;;;;;;10.12;100.00;100125.84;5091775;28;20047;-45
2023/01/08 03:24:33;;;;;;;5.45;1.52;;;;;;;10.06;100.00;100124.28;5092182;28;20067;-46
2023/01/08 03:27:04;;;;;;;5.15;1.50;;;;;;;10.03;100.00;100126.44;5091583;28;20091;-46
2023/01/08 03:29:32;;;;;;;4.30;1.65;;;;;;;10.04;100.00;100119.09;5093141;28;20098;-45
2023/01/08 03:32:03;;;;;;;5.75;1.77;;;;;;;9.97;100.00;100124.84;5093074;28;20558;-44
2023/01/08 03:34:32;;;;;;;5.70;1.77;;;;;;;9.96;100.00;100123.22;5101569;28;20078;-44
2023/01/08 03:37:03;;;;;;;5.97;1.85;;;;;;;9.99;100.00;100130.00;5095441;28;20039;-44
2023/01/08 03:39:37;;;;;;;4.75;1.90;;;;;;;9.95;100.00;100132.47;5093653;28;20044;-44
2023/01/08 03:42:06;;;;;;;7.45;2.00;;;;;;;9.93;100.00;100129.25;5075337;28;20043;-44
2023/01/08 03:44:34;;;;;;;3.55;1.48;;;;;;;9.96;100.00;100138.75;5091310;28;20155;-44
2023/01/08 03:47:02;;;;;;;5.00;1.88;;;;;;;9.97;100.00;100119.41;5093473;28;20502;-44
2023/01/08 03:49:30;;;;;;;5.78;1.65;;;;;;;9.99;100.00;100117.22;5093322;28;20047;-45
2023/01/08 03:51:57;;;;;;;6.25;1.85;;;;;;;10.01;100.00;100117.75;5091200;28;20090;-45
2023/01/08 03:54:30;;;;;;;4.63;1.60;;;;;;;10.00;100.00;100115.28;5091466;28;20060;-45
2023/01/08 03:56:58;;;;;;;4.18;1.77;;;;;;;10.01;100.00;100116.94;5092091;28;20046;-45
2023/01/08 03:59:26;;;;;;;2.78;1.20;;;;;;;9.97;100.00;100108.50;5091503;28;20531;-44
2023/01/08 04:01:53;;;;;;;5.72;1.85;;;;;;;9.97;100.00;100107.72;5090075;28;20402;-43
2023/01/08 04:04:21;;;;;;;6.32;2.08;;;;;;;10.01;100.00;100114.22;5091406;28;20434;-45
2023/01/08 04:06:50;;;;;;;6.30;1.77;;;;;;;9.93;100.00;100101.19;5092447;28;20040;-44
2023/01/08 04:09:18;;;;;;;5.32;1.70;;;;;;;9.99;100.00;100100.06;5086442;28;20045;-45
2023/01/08 04:11:45;;;;;;;7.22;2.03;;;;;;;9.94;100.00;100098.19;5090779;28;20052;-45
2023/01/08 04:14:33;;;;;;;4.90;1.65;;;;;;;9.97;100.00;100102.25;5095732;28;20093;-45
2023/01/08 04:17:02;;;;;;;2.72;1.50;;;;;;;9.97;100.00;100096.81;5098931;28;20127;-45
2023/01/08 04:19:30;;;;;;;4.18;1.70;;;;;;;9.93;100.00;100096.59;5096329;28;20101;-44
2023/01/08 04:21:57;;;;;;;8.10;1.90;;;;;;;9.94;100.00;100092.75;5095882;28;20116;-44
2023/01/08 04:24:25;;;;;;;4.57;1.67;;;;;;;9.95;100.00;100093.56;5082230;28;20055;-44
2023/01/08 04:26:52;;;;;;;5.45;1.88;;;;;;;9.97;100.00;100081.31;5096442;28;20040;-43
2023/01/08 04:29:20;;;;;;;5.35;1.85;;;;;;;9.99;100.00;100083.75;5095916;28;20121;-44
2023/01/08 04:31:48;;;;;;;8.10;2.85;;;;;;;9.98;100.00;100077.50;5095833;28;20047;-43
2023/01/08 04:34:15;;;;;;;5.75;2.20;;;;;;;9.96;100.00;100076.16;5094950;28;20036;-44
2023/01/08 04:36:43;;;;;;;7.25;2.40;;;;;;;9.96;100.00;100081.59;5095351;28;20032;-44
2023/01/08 04:39:10;;;;;;;5.88;2.10;;;;;;;9.97;100.00;100081.31;5096001;28;20061;-44
2023/01/08 04:41:38;;;;;;;7.25;1.95;;;;;;;9.93;100.00;100079.41;5096148;28;20032;-44
2023/01/08 04:44:06;;;;;;;4.63;1.70;;;;;;;9.94;100.00;100072.91;5095675;28;20554;-44
2023/01/08 04:46:33;;;;;;;3.95;1.65;;;;;;;9.94;100.00;100071.00;5094607;28;20490;-43
2023/01/08 04:49:01;;;;;;;7.55;2.00;;;;;;;9.95;100.00;100060.91;5095959;28;20044;-44
2023/01/08 04:51:29;;;;;;;3.92;1.58;;;;;;;9.94;100.00;100064.75;5095719;28;20040;-44
2023/01/08 04:53:57;;;;;;;2.60;1.58;;;;;;;9.98;100.00;100072.06;5084654;28;20048;-43
2023/01/08 04:56:24;;;;;;;4.88;1.58;;;;;;;9.98;100.00;100074.78;5093820;28;20052;-43
2023/01/08 04:58:52;;;;;;;3.55;1.65;;;;;;;9.99;100.00;100067.41;5093275;28;20032;-43
2023/01/08 05:01:22;;;;;;;4.57;1.77;;;;;;;9.99;100.00;100067.41;5094463;28;20040;-44
2023/01/08 05:03:55;;;;;;;3.33;1.58;;;;;;;10.02;100.00;100072.28;5094050;28;20498;-45
2023/01/08 05:06:23;;;;;;;3.50;1.55;;;;;;;10.17;100.00;100072.19;5094166;28;20097;-45
2023/01/08 05:08:50;;;;;;;5.32;1.77;;;;;;;10.07;100.00;100068.72;5094449;28;20113;-46
2023/01/08 05:11:18;;;;;;;5.03;1.85;;;;;;;10.24;100.00;100069.13;5089681;28;20055;-44
2023/01/08 05:13:50;;;;;;;3.72;2.00;;;;;;;10.36;100.00;100058.72;5094419;28;20039;-44
2023/01/08 05:16:18;;;;;;;2.92;1.40;;;;;;;10.20;100.00;100057.22;5094833;28;20398;-44
2023/01/08 05:18:46;;;;;;;3.42;1.80;;;;;;;10.12;100.00;100060.50;5092792;28;20455;-44
2023/01/08 05:21:14;;;;;;;3.03;1.60;;;;;;;10.07;100.00;100069.53;5070284;28;20050;-44
2023/01/08 05:23:45;;;;;;;1.80;1.25;;;;;;;10.17;100.00;100074.91;5094043;28;20127;-44
2023/01/08 05:26:13;;;;;;;4.88;1.40;;;;;;;10.18;100.00;100073.81;5066987;28;20075;-45
2023/01/08 05:28:41;;;;;;;12.50;1.95;;;;;;;10.24;100.00;100058.25;5088665;28;20506;-44
2023/01/08 05:31:10;;;;;;;1.70;1.40;;;;;;;10.31;100.00;100053.31;5092608;28;20071;-44
2023/01/08 05:33:38;;;;;;;4.47;1.50;;;;;;;10.29;100.00;100065.59;5092747;28;20044;-44
2023/01/08 05:36:07;;;;;;;2.60;1.30;;;;;;;10.40;100.00;100067.94;5094719;28;20445;-44
2023/01/08 05:38:36;;;;;;;3.55;1.50;;;;;;;10.38;100.00;100053.00;5093270;28;20036;-43
2023/01/08 05:41:04;;;;;;;3.55;1.70;;;;;;;10.50;100.00;100053.44;5093206;28;20041;-45
2023/01/08 05:43:32;;;;;;;2.15;1.33;;;;;;;10.53;100.00;100041.16;5092667;28;20121;-44
2023/01/08 05:46:01;;;;;;;3.40;1.30;;;;;;;10.47;100.00;100031.41;5092125;28;20047;-44
2023/01/08 05:48:31;;;;;;;5.50;1.48;;;;;;;10.46;100.00;100038.75;5093164;28;20081;-46
2023/01/08 05:50:58;;;;;;;6.90;1.65;;;;;;;10.34;100.00;100038.31;5094242;28;20561;-45
2023/01/08 05:53:26;;;;;;;3.90;1.40;;;;;;;10.45;100.00;100031.69;5090190;28;20079;-45
2023/01/08 05:56:05;;;;;;;3.63;1.50;;;;;;;10.36;100.00;100038.84;5092310;28;20406;-45
2023/01/08 05:58:36;;;;;;;5.85;2.00;;;;;;;10.07;100.00;100049.66;5093110;28;20048;-45
2023/01/08 06:01:09;;;;;;;6.15;2.30;;;;;;;9.90;100.00;100055.50;5092716;28;20056;-45
2023/01/08 06:03:38;;;;;;;4.55;2.10;;;;;;;9.77;100.00;100054.22;5091306;28;20059;-46
2023/01/08 06:06:06;;;;;;;5.15;1.85;;;;;;;9.71;100.00;100055.34;5094088;28;20330;-42
2023/01/08 06:08:34;;;;;;;7.68;2.15;;;;;;;9.64;100.00;100052.94;5090803;28;20051;-44
2023/01/08 06:11:05;;;;;;;5.97;2.05;;;;;;;9.63;100.00;100055.94;5092658;28;20058;-44
2023/01/08 06:13:34;;;;;;;6.65;2.17;;;;;;;9.71;100.00;100045.28;5092158;28;20040;-44
2023/01/08 06:16:02;;;;;;;4.45;2.08;;;;;;;9.71;100.00;100056.16;5089020;28;20052;-44
2023/01/08 06:18:30;;;;;;;7.82;1.92;;;;;;;9.79;100.00;100058.31;5088157;28;20043;-43
2023/01/08 06:20:57;;;;;;;5.78;1.98;;;;;;;9.72;100.00;100074.13;5093684;28;20558;-42
2023/01/08 06:23:25;;;;;;;6.90;2.15;;;;;;;9.71;100.00;100079.81;5092636;28;20109;-43
2023/01/08 06:25:53;;;;;;;3.30;1.77;;;;;;;9.65;100.00;100089.13;5092944;28;20474;-44
2023/01/08 06:28:21;;;;;;;6.68;2.13;;;;;;;9.65;100.00;100084.50;5085712;28;20123;-44
2023/01/08 06:30:49;;;;;;;6.25;2.40;;;;;;;9.66;100.00;100086.09;5086447;28;20037;-44
2023/01/08 06:33:18;;;;;;;5.32;2.22;;;;;;;9.67;100.00;100085.03;5084094;28;20036;-43
2023/01/08 06:35:48;;;;;;;7.00;2.28;;;;;;;9.63;100.00;100089.41;5095992;28;20039;-53
2023/01/08 06:38:18;;;;;;;2.50;1.60;;;;;;;9.62;100.00;100089.66;5078056;28;20036;-43
2023/01/08 06:40:46;;;;;;;6.18;2.30;;;;;;;9.61;100.00;100097.00;5093229;28;20494;-48
2023/01/08 06:43:14;;;;;;;7.00;1.85;;;;;;;9.58;100.00;100108.47;5086006;28;20048;-44
2023/01/08 06:45:42;;;;;;;4.13;1.88;;;;;;;9.60;100.00;100104.38;5091729;28;20055;-45
2023/01/08 06:48:10;;;;;;;6.57;2.05;;;;;;;9.69;100.00;100101.06;5082320;28;20047;-44
2023/01/08 06:50:37;;;;;;;4.43;1.58;;;;;;;9.77;100.00;100092.31;5090743;28;20119;-45
2023/01/08 06:53:05;;;;;;;5.53;2.13;;;;;;;9.70;100.00;100102.69;5094432;28;20048;-50
2023/01/08 06:55:33;;;;;;;6.82;2.15;;;;;;;9.63;100.00;100103.00;5093612;28;20040;-44
2023/01/08 06:58:00;;;;;;;6.00;2.13;;;;;;;9.73;100.00;100096.69;5093172;28;20040;-44
2023/01/08 07:00:28;;;;;;;6.82;2.22;;;;;;;9.70;100.00;100095.34;5093093;28;20059;-45
2023/01/08 07:02:55;;;;;;;5.22;2.05;;;;;;;9.75;100.00;100094.50;5074760;28;20042;-43
2023/01/08 07:05:23;;;;;;;4.97;1.83;;;;;;;9.63;100.00;100092.13;5093231;28;20044;-44
2023/01/08 07:07:51;;;;;;;9.05;2.13;;;;;;;9.54;100.00;100088.34;5092044;28;20040;-45
2023/01/08 07:10:19;;;;;;;6.22;2.13;;;;;;;9.53;100.00;100092.97;5088470;28;20491;-43
2023/01/08 07:12:47;;;;;;;6.05;2.00;;;;;;;9.62;100.00;100090.50;5092854;28;20495;-45
2023/01/08 07:15:14;;;;;;;5.00;1.95;;;;;;;9.56;100.00;100091.59;5091895;28;20047;-43
2023/01/08 07:17:42;;;;;;;5.80;2.00;;;;;;;9.58;100.00;100086.69;5093028;28;20036;-42
2023/01/08 07:20:10;;;;;;;6.60;2.00;;;;;;;9.69;100.00;100093.72;5092652;28;20035;-44
2023/01/08 07:22:38;;;;;;;6.38;1.98;;;;;;;9.75;100.00;100084.44;5092536;28;20044;-43
2023/01/08 07:25:06;;;;;;;5.05;1.75;;;;;;;9.68;100.00;100078.47;5092739;28;20402;-43
2023/01/08 07:27:33;;;;;;;4.55;1.83;;;;;;;9.64;100.00;100073.88;5091669;28;20047;-44
2023/01/08 07:30:01;;;;;;;3.20;1.70;;;;;;;9.66;100.00;100075.22;5092477;28;20040;-44
2023/01/08 07:32:29;;;;;;;6.85;2.05;;;;;;;9.63;100.00;100075.00;5092875;28;20147;-45
2023/01/08 07:34:58;;;;;;;4.50;2.00;;;;;;;9.59;100.00;100080.16;5092673;28;20044;-44
2023/01/08 07:37:26;;;;;;;3.13;1.58;;;;;;;9.58;100.00;100078.53;5092772;28;20048;-45
2023/01/08 07:39:53;;;;;;;5.53;2.00;;;;;;;9.69;100.00;100079.28;5091424;28;20040;-45
2023/01/08 07:42:21;;;;;;;10.15;2.05;;;;;;;9.87;100.00;100088.72;5092057;28;20445;-45
2023/01/08 07:44:48;;;;;;;6.88;2.33;;;;;;;9.86;100.00;100084.38;5095963;28;20072;-44
2023/01/08 07:47:16;;;;;;;9.02;2.50;;;;;;;9.84;100.00;100092.00;5096423;28;20506;-45
2023/01/08 07:49:44;;;;;;;8.52;2.70;;;;;;;9.74;100.00;100085.53;5094104;28;20098;-44
2023/01/08 07:52:11;;;;;;;8.98;2.60;;;;;;;9.77;100.00;100087.69;5097141;28;20085;-45
2023/01/08 07:54:39;;;;;;;14.18;2.42;;;;;;;9.74;100.00;100084.69;5094959;28;20048;-44
2023/01/08 07:57:07;;;;;;;6.28;2.05;;;;;;;9.84;100.00;100081.94;5078871;28;20032;-45
2023/01/08 07:59:34;;;;;;;12.20;2.22;;;;;;;9.75;100.00;100092.59;5095220;28;20516;-45
2023/01/08 08:02:02;;;;;;;11.57;2.35;;;;;;;9.79;100.00;100090.94;5094933;28;20147;-45
2023/01/08 08:04:30;;;;;;;7.60;2.38;;;;;;;9.78;100.00;100083.84;5094800;28;20074;-45
2023/01/08 08:06:58;;;;;;;7.05;2.10;;;;;;;9.81;100.00;100088.75;5096319;28;20040;-45
2023/01/08 08:09:25;;;;;;;5.95;2.05;;;;;;;9.71;100.00;100085.25;5090317;28;20040;-45
2023/01/08 08:11:53;;;;;;;8.57;2.45;;;;;;;9.88;100.00;100085.72;5095136;28;20048;-45
2023/01/08 08:14:20;;;;;;;8.73;2.67;;;;;;;9.77;100.00;100076.81;5090585;28;20059;-47
2023/01/08 08:16:48;;;;;;;9.55;2.60;;;;;;;9.76;100.00;100077.88;5109599;28;20040;-45
2023/01/08 08:19:16;;;;;;;3.58;1.92;;;;;;;9.71;100.00;100071.66;5088012;28;20074;-46
2023/01/08 08:21:43;;;;;;;10.68;2.67;;;;;;;9.50;100.00;100058.19;5095935;28;20036;-46
2023/01/08 08:24:11;;;;;;;10.27;2.58;;;;;;;9.21;100.00;100063.47;5096496;28;20036;-44
2023/01/08 08:26:39;;;;;;;7.07;2.22;;;;;;;9.06;100.00;100053.47;5094382;28;20043;-44
2023/01/08 08:29:06;;;;;;;8.05;2.60;;;;;;;9.02;100.00;100054.28;5095333;28;20039;-43
2023/01/08 08:31:34;;;;;;;8.20;2.60;;;;;;;8.98;99.62;100050.50;5094151;28;20482;-44
2023/01/08 08:34:02;;;;;;;7.63;2.60;;;;;;;8.93;99.33;100045.91;5094444;28;20048;-45
2023/01/08 08:36:30;;;;;;;9.02;2.38;;;;;;;8.91;99.89;100038.03;5094155;28;20094;-45
2023/01/08 08:38:57;;;;;;;10.20;2.92;;;;;;;8.98;99.79;100047.78;5095003;28;20040;-44
2023/01/08 08:41:25;;;;;;;7.15;2.55;;;;;;;9.02;100.00;100043.41;5095709;28;20406;-44
2023/01/08 08:43:53;;;;;;;17.10;4.85;;;;;;;9.21;100.00;100046.34;5095702;28;20044;-45
2023/01/08 08:46:20;;;;;;;14.90;4.13;;;;;;;9.23;100.00;100050.41;5095248;28;20055;-44
2023/01/08 08:48:48;;;;;;;16.60;4.30;;;;;;;9.27;100.00;100053.41;5095940;28;20074;-44
2023/01/08 08:51:15;;;;;;;10.70;4.35;;;;;;;9.28;100.00;100050.38;5097556;28;20055;-47
2023/01/08 08:53:43;;;;;;;13.70;4.00;;;;;;;9.54;100.00;100048.34;5097239;28;20058;-44
2023/01/08 08:56:11;;;;;;;16.92;4.32;;;;;;;9.45;100.00;100051.94;5095630;28;20422;-46
2023/01/08 08:58:40;;;;;;;12.13;3.95;;;;;;;9.38;100.00;100041.41;5095390;28;20048;-44
2023/01/08 09:01:08;;;;;;;11.60;2.95;;;;;;;9.36;100.00;100038.94;5095178;28;20084;-45
2023/01/08 09:03:36;;;;;;;13.65;3.75;;;;;;;9.51;100.00;100042.69;5095240;28;20566;-45
2023/01/08 09:06:04;;;;;;;16.20;4.15;;;;;;;9.54;100.00;100039.41;5094981;28;20070;-46
2023/01/08 09:08:32;;;;;;;10.18;3.05;;;;;;;9.42;100.00;100041.63;5094638;28;20394;-46
2023/01/08 09:11:02;;;;;;;8.02;3.08;;;;;;;9.36;100.00;100036.22;5093659;28;20060;-44
2023/01/08 09:13:29;;;;;;;13.85;3.60;;;;;;;9.44;100.00;100040.25;5095075;28;20443;-44
2023/01/08 09:15:58;;;;;;;9.55;3.03;;;;;;;9.35;100.00;100042.75;5094309;28;20047;-44
2023/01/08 09:18:26;;;;;;;10.50;3.17;;;;;;;9.41;100.00;100035.38;5094870;28;20055;-44
2023/01/08 09:20:54;;;;;;;12.65;3.90;;;;;;;9.52;100.00;100041.56;5094723;28;20039;-44
2023/01/08 09:23:21;;;;;;;10.00;2.97;;;;;;;9.51;100.00;100045.41;5094601;28;20559;-46
2023/01/08 09:25:49;;;;;;;12.70;3.50;;;;;;;9.57;100.00;100049.69;5080765;28;20410;-46
2023/01/08 09:28:16;;;;;;;10.32;3.15;;;;;;;9.47;100.00;100050.56;5094538;28;20374;-45
2023/01/08 09:30:44;;;;;;;11.30;3.00;;;;;;;9.34;100.00;100046.56;5094155;28;20090;-44
2023/01/08 09:33:12;;;;;;;8.40;3.22;;;;;;;9.32;100.00;100043.31;5094783;28;20044;-44
2023/01/08 09:35:42;;;;;;;10.07;2.92;;;;;;;9.33;100.00;100041.38;5092784;28;20494;-43
2023/01/08 09:38:09;;;;;;;9.10;3.13;;;;;;;9.33;100.00;100042.22;5094546;28;20097;-44
2023/01/08 09:40:49;;;;;;;9.18;2.80;;;;;;;9.28;100.00;100046.84;5094511;28;20043;-44
2023/01/08 09:43:19;;;;;;;10.07;2.63;;;;;;;9.26;100.00;100038.16;5094956;28;20047;-43
2023/01/08 09:46:00;;;;;;;8.57;2.95;;;;;;;9.19;100.00;100024.91;5095884;28;20111;-46
2023/01/08 09:48:35;;;;;;;10.20;2.80;;;;;;;9.21;100.00;100028.13;5093102;28;20089;-43
2023/01/08 09:51:04;;;;;;;8.95;3.05;;;;;;;9.24;100.00;100027.59;5094524;28;20047;-42
2023/01/08 09:53:32;;;;;;;9.48;3.00;;;;;;;9.26;100.00;100028.13;5093752;28;20055;-43
2023/01/08 09:56:02;;;;;;;10.98;3.15;;;;;;;9.22;100.00;100021.63;5093762;28;20032;-44
2023/01/08 09:58:49;;;;;;;9.38;2.80;;;;;;;9.18;100.00;100015.09;5093138;28;20043;-44
2023/01/08 10:01:25;;;;;;;8.50;2.97;;;;;;;9.26;100.00;100017.25;5076397;28;20043;-44
2023/01/08 10:03:59;;;;;;;11.45;3.28;;;;;;;9.33;100.00;100016.94;5093028;28;20040;-44
2023/01/08 10:06:26;;;;;;;7.63;2.75;;;;;;;9.26;100.00;100011.81;5092240;28;20040;-44
2023/01/08 10:08:54;;;;;;;7.00;2.55;;;;;;;9.22;100.00;100010.75;5086461;28;20120;-44
2023/01/08 10:11:22;;;;;;;10.43;3.33;;;;;;;9.24;100.00;100003.13;5085147;28;20040;-45
2023/01/08 10:13:53;;;;;;;7.72;2.70;;;;;;;9.25;100.00;100002.03;5109633;28;20071;-44
2023/01/08 10:16:35;;;;;;;10.43;3.10;;;;;;;9.26;100.00;99995.50;5093832;28;20040;-45
2023/01/08 10:19:04;;;;;;;8.20;2.90;;;;;;;9.15;100.00;99993.91;5082071;28;20072;-45
2023/01/08 10:21:39;;;;;;;9.02;3.30;;;;;;;9.10;100.00;99992.03;5093577;28;20494;-45
2023/01/08 10:24:07;;;;;;;9.45;2.80;;;;;;;9.16;100.00;99987.38;5079629;28;20083;-44
2023/01/08 10:26:37;;;;;;;9.98;3.00;;;;;;;9.31;100.00;99991.94;5092508;28;20048;-44
2023/01/08 10:29:15;;;;;;;9.23;2.90;;;;;;;9.34;100.00;99983.22;5061147;28;20419;-45
2023/01/08 10:32:19;;;;;;;9.27;3.05;;;;;;;9.42;100.00;99987.25;5093372;28;20046;-45
2023/01/08 10:34:50;;;;;;;7.38;2.80;;;;;;;9.33;100.00;99979.69;5092431;28;20036;-46
2023/01/08 10:37:25;;;;;;;9.50;3.10;;;;;;;9.28;100.00;99977.00;5092543;28;20036;-44
2023/01/08 10:39:57;;;;;;;6.45;2.33;;;;;;;9.30;100.00;99971.28;5092303;28;20040;-44
2023/01/08 10:42:25;;;;;;;7.80;2.80;;;;;;;9.27;100.00;99967.22;5092100;28;20044;-45
2023/01/08 10:44:59;;;;;;;8.10;2.53;;;;;;;9.34;100.00;99967.72;5083349;28;20036;-46
2023/01/08 10:47:33;;;;;;;8.35;2.63;;;;;;;9.37;100.00;99960.91;5088221;28;20445;-46
2023/01/08 10:50:03;;;;;;;8.35;3.17;;;;;;;9.31;100.00;99960.13;5049714;28;20033;-45
2023/01/08 10:52:32;;;;;;;9.25;3.38;;;;;;;9.32;100.00;99961.75;5087331;28;20036;-44
2023/01/08 10:55:23;;;;;;;8.60;2.95;;;;;;;9.64;100.00;99954.22;5093398;28;20394;-44
2023/01/08 10:57:58;;;;;;;9.45;2.85;;;;;;;9.51;100.00;99951.03;5092100;28;20035;-45
2023/01/08 11:00:32;;;;;;;9.18;3.13;;;;;;;9.73;100.00;99939.72;5091847;28;20101;-44
2023/01/08 11:03:25;;;;;;;8.57;2.85;;;;;;;9.74;100.00;99946.81;5091599;28;20047;-44
2023/01/08 11:05:53;;;;;;;11.15;3.63;;;;;;;9.79;100.00;99933.16;5092460;28;20517;-44
2023/01/08 11:08:21;;;;;;;5.13;2.28;;;;;;;9.88;100.00;99938.78;5092324;28;20044;-47
2023/01/08 11:11:00;;;;;;;8.05;3.10;;;;;;;9.97;100.00;99930.81;5094881;28;20032;-47
2023/01/08 11:13:29;;;;;;;5.57;1.92;;;;;;;9.86;100.00;99929.28;5110202;28;20040;-44
2023/01/08 11:16:06;;;;;;;8.52;2.92;;;;;;;10.01;100.00;99926.44;5093021;28;20374;-44
2023/01/08 11:18:43;;;;;;;6.75;2.70;;;;;;;10.11;100.00;99928.25;5093842;28;20048;-44
2023/01/08 11:21:19;;;;;;;7.05;2.60;;;;;;;10.02;100.00;99915.25;5095133;28;20051;-49
2023/01/08 11:23:59;;;;;;;4.97;2.15;;;;;;;9.91;100.00;99912.91;5095314;28;20359;-44
2023/01/08 11:26:27;;;;;;;7.82;2.42;;;;;;;9.85;100.00;99914.88;5094320;28;20048;-45
2023/01/08 11:29:07;;;;;;;3.63;2.00;;;;;;;9.85;100.00;99908.63;5091734;28;20040;-45
2023/01/08 11:31:40;;;;;;;4.85;2.10;;;;;;;10.16;100.00;99903.69;5092734;28;20052;-45
2023/01/08 11:34:39;;;;;;;6.50;2.47;;;;;;;10.10;100.00;99900.22;5092073;28;20048;-45
2023/01/08 11:37:12;;;;;;;6.90;2.22;;;;;;;10.20;100.00;99900.13;5091213;28;20052;-46
2023/01/08 11:39:40;;;;;;;5.25;1.90;;;;;;;10.23;100.00;99883.19;5092805;28;20382;-45